Time;durP1;ratioP1;P1;durP2;ratioP2;P2;SDS_P1;SDS_P2;PMS_P1;PMS_P2;Temp;Humidity;BMP_temperature;BMP_pressure;BME280_temperature;BME280_humidity;BME280_pressure;Samples;Min_cycle;Max_cycle;Signal;HPM_P1;HPM_P2
2022/04/01 00:01:57;;;;;;;9.25;7.68;;;4.40;99.90;;;;;;5032867;28;20170;-47
2022/04/01 00:04:23;;;;;;;10.07;7.57;;;4.40;99.90;;;;;;5032845;28;20178;-47
2022/04/01 00:06:48;;;;;;;10.52;8.13;;;4.50;99.90;;;;;;5032246;28;20214;-47
2022/04/01 00:09:14;;;;;;;11.55;8.73;;;4.60;99.90;;;;;;5032968;28;20209;-47
2022/04/01 00:11:39;;;;;;;8.90;8.00;;;4.50;99.90;;;;;;5032906;28;20181;-47
2022/04/01 00:14:05;;;;;;;10.38;8.25;;;4.60;99.90;;;;;;5032786;28;20194;-47
2022/04/01 00:16:31;;;;;;;9.48;8.30;;;4.60;99.90;;;;;;5032896;28;20167;-47
2022/04/01 00:18:57;;;;;;;11.07;8.35;;;4.70;99.90;;;;;;5032674;28;20195;-47
2022/04/01 00:21:24;;;;;;;10.15;8.85;;;4.70;99.90;;;;;;5032741;28;20174;-47
2022/04/01 00:23:49;;;;;;;11.05;8.95;;;4.80;99.90;;;;;;5032937;28;20195;-47
2022/04/01 00:26:15;;;;;;;12.00;10.18;;;4.70;99.90;;;;;;5032613;28;20206;-47
2022/04/01 00:28:40;;;;;;;11.55;10.32;;;4.80;99.90;;;;;;5048223;28;20171;-47
2022/04/01 00:31:06;;;;;;;12.27;10.43;;;4.80;99.90;;;;;;5032580;28;20168;-47
2022/04/01 00:33:31;;;;;;;27.10;20.17;;;4.80;99.90;;;;;;5032647;28;20278;-46
2022/04/01 00:35:57;;;;;;;15.05;12.15;;;4.90;99.90;;;;;;5032784;28;20172;-47
2022/04/01 00:38:23;;;;;;;12.05;10.65;;;4.80;99.90;;;;;;5032686;28;20662;-47
2022/04/01 00:40:51;;;;;;;11.20;9.15;;;4.80;99.90;;;;;;5032902;28;20178;-47
2022/04/01 00:43:24;;;;;;;11.05;9.00;;;4.70;99.90;;;;;;5032647;28;20209;-47
2022/04/01 00:45:50;;;;;;;9.55;8.23;;;4.70;99.90;;;;;;5032652;28;20250;-47
2022/04/01 00:48:17;;;;;;;10.13;5.97;;;4.50;99.90;;;;;;5032213;28;20306;-47
2022/04/01 00:50:43;;;;;;;8.65;7.70;;;4.50;99.90;;;;;;5032525;28;20167;-47
2022/04/01 00:53:09;;;;;;;7.90;6.65;;;4.40;99.90;;;;;;5032267;28;20183;-47
2022/04/01 00:55:34;;;;;;;8.68;7.38;;;4.30;99.90;;;;;;5032310;28;20177;-47
2022/04/01 00:58:00;;;;;;;8.98;7.90;;;4.30;99.90;;;;;;5032078;28;20552;-47
2022/04/01 01:00:28;;;;;;;8.68;7.30;;;4.30;99.90;;;;;;5032360;28;20171;-47
2022/04/01 01:02:54;;;;;;;8.88;6.57;;;4.30;99.90;;;;;;5032410;28;20182;-47
2022/04/01 01:05:20;;;;;;;6.82;6.07;;;4.10;99.90;;;;;;5032197;28;20221;-48
2022/04/01 01:07:46;;;;;;;8.80;6.68;;;4.20;99.90;;;;;;5031648;28;20167;-47
2022/04/01 01:10:13;;;;;;;9.00;7.10;;;4.10;99.90;;;;;;5032086;28;20167;-47
2022/04/01 01:12:40;;;;;;;6.40;4.55;;;4.10;99.90;;;;;;5032098;28;20163;-47
2022/04/01 01:15:13;;;;;;;7.72;6.80;;;4.10;99.90;;;;;;5032318;28;20213;-46
2022/04/01 01:17:41;;;;;;;7.10;6.30;;;4.10;99.90;;;;;;5032200;28;20171;-47
2022/04/01 01:20:12;;;;;;;8.43;6.45;;;4.10;99.90;;;;;;5035943;28;20678;-47
2022/04/01 01:22:42;;;;;;;6.32;5.35;;;4.00;99.90;;;;;;5036306;28;20213;-47
2022/04/01 01:25:10;;;;;;;6.93;6.10;;;3.90;99.90;;;;;;5036004;28;20627;-46
2022/04/01 01:27:36;;;;;;;8.32;7.30;;;4.00;99.90;;;;;;5035906;28;20206;-47
2022/04/01 01:30:03;;;;;;;7.07;5.35;;;4.00;99.90;;;;;;5035936;28;20175;-47
2022/04/01 01:32:29;;;;;;;7.97;6.95;;;3.90;99.90;;;;;;5035871;28;20175;-47
2022/04/01 01:34:55;;;;;;;7.53;6.22;;;3.90;99.90;;;;;;5036086;28;20209;-47
2022/04/01 01:37:21;;;;;;;10.90;6.15;;;3.90;99.90;;;;;;5036122;28;20176;-47
2022/04/01 01:39:47;;;;;;;6.78;6.15;;;3.90;99.90;;;;;;5035729;28;20215;-46
2022/04/01 01:42:12;;;;;;;7.70;5.68;;;3.90;99.90;;;;;;5035733;28;20167;-47
2022/04/01 01:44:38;;;;;;;8.38;6.25;;;3.80;99.90;;;;;;5034364;28;20195;-47
2022/04/01 01:47:04;;;;;;;8.23;7.07;;;3.90;99.90;;;;;;5034207;28;20219;-47
2022/04/01 01:49:30;;;;;;;9.05;6.22;;;3.80;99.90;;;;;;5035562;28;20594;-47
2022/04/01 01:54:43;;;;;;;6.05;5.10;;;3.70;99.90;;;;;;5035463;28;20231;-47
2022/04/01 01:57:10;;;;;;;8.13;6.15;;;3.80;99.90;;;;;;5035672;28;20175;-46
2022/04/01 01:59:36;;;;;;;7.18;5.80;;;3.70;99.90;;;;;;5035229;28;20306;-46
2022/04/01 02:02:05;;;;;;;10.00;7.15;;;3.70;99.90;;;;;;5035354;28;20164;-47
2022/04/01 02:04:32;;;;;;;5.95;5.30;;;3.70;99.90;;;;;;5035917;28;20179;-46
2022/04/01 02:06:59;;;;;;;9.65;6.95;;;3.70;99.90;;;;;;5035548;28;20258;-47
2022/04/01 02:09:24;;;;;;;8.77;7.03;;;3.60;99.90;;;;;;5035174;28;20164;-47
2022/04/01 02:11:51;;;;;;;8.93;8.02;;;3.60;99.90;;;;;;5035503;28;20179;-46
2022/04/01 02:14:17;;;;;;;9.00;6.43;;;3.60;99.90;;;;;;5035389;28;20254;-47
2022/04/01 02:16:43;;;;;;;8.75;7.03;;;3.50;99.90;;;;;;5035318;28;20738;-47
2022/04/01 02:19:13;;;;;;;7.18;5.90;;;3.60;99.90;;;;;;5035233;28;20219;-46
2022/04/01 02:21:39;;;;;;;12.18;6.47;;;3.60;99.90;;;;;;5035039;28;20234;-47
2022/04/01 02:24:10;;;;;;;7.97;5.97;;;3.50;99.90;;;;;;5034970;28;20214;-46
2022/04/01 02:26:36;;;;;;;10.00;7.88;;;3.50;99.90;;;;;;5033654;28;20175;-46
2022/04/01 02:29:03;;;;;;;7.95;5.68;;;3.50;99.90;;;;;;5034844;28;20167;-46
2022/04/01 02:31:30;;;;;;;8.90;7.05;;;3.40;99.90;;;;;;5034030;28;20210;-46
2022/04/01 02:33:56;;;;;;;10.55;7.80;;;3.50;99.90;;;;;;5033415;28;20686;-46
2022/04/01 02:36:22;;;;;;;6.63;5.63;;;3.50;99.90;;;;;;5035289;28;20229;-46
2022/04/01 02:38:49;;;;;;;7.80;6.03;;;3.40;99.90;;;;;;5035122;28;20214;-46
2022/04/01 02:41:15;;;;;;;6.57;4.97;;;3.40;99.90;;;;;;5034901;28;20163;-46
2022/04/01 02:43:41;;;;;;;3.45;2.97;;;3.40;99.90;;;;;;5034831;28;20195;-47
2022/04/01 02:46:10;;;;;;;9.60;7.63;;;3.40;99.90;;;;;;5034565;28;20222;-46
2022/04/01 02:48:37;;;;;;;8.35;6.80;;;3.40;99.90;;;;;;5034546;28;20631;-46
2022/04/01 02:51:03;;;;;;;8.57;7.15;;;3.40;99.90;;;;;;5034428;28;20167;-46
2022/04/01 02:53:28;;;;;;;7.68;6.63;;;3.40;99.90;;;;;;5034543;28;20173;-46
2022/04/01 02:55:54;;;;;;;7.85;5.47;;;3.40;99.90;;;;;;5034389;28;20175;-46
2022/04/01 02:58:20;;;;;;;8.38;6.32;;;3.30;99.90;;;;;;5034549;28;20202;-47
2022/04/01 03:00:46;;;;;;;5.85;4.75;;;3.30;99.90;;;;;;5034295;28;20170;-47
2022/04/01 03:03:12;;;;;;;7.53;6.65;;;3.30;99.90;;;;;;5034145;28;20171;-47
2022/04/01 03:05:40;;;;;;;5.28;4.78;;;3.30;99.90;;;;;;5034231;28;20298;-47
2022/04/01 03:08:07;;;;;;;7.72;5.65;;;3.30;99.90;;;;;;5034117;28;20167;-46
2022/04/01 03:10:34;;;;;;;6.13;5.28;;;3.20;99.90;;;;;;5034310;28;20171;-47
2022/04/01 03:13:00;;;;;;;9.18;5.95;;;3.10;99.90;;;;;;5034038;28;20164;-47
2022/04/01 03:15:28;;;;;;;3.88;3.53;;;3.20;99.90;;;;;;5034002;28;20246;-47
2022/04/01 03:17:58;;;;;;;7.40;6.30;;;3.20;99.90;;;;;;5033864;28;20277;-47
2022/04/01 03:20:24;;;;;;;6.07;5.45;;;3.20;99.90;;;;;;5034236;28;20261;-47
2022/04/01 03:22:50;;;;;;;7.13;6.43;;;3.10;99.90;;;;;;5034226;28;20167;-47
2022/04/01 03:25:18;;;;;;;5.50;3.85;;;3.20;99.90;;;;;;5034126;28;20230;-47
2022/04/01 03:27:45;;;;;;;7.05;6.22;;;3.10;99.90;;;;;;5033747;28;20534;-47
2022/04/01 03:30:11;;;;;;;7.25;6.00;;;3.20;99.90;;;;;;5033886;28;20258;-47
2022/04/01 03:32:38;;;;;;;6.25;5.20;;;3.10;99.90;;;;;;5033620;28;20198;-47
2022/04/01 03:35:13;;;;;;;7.30;6.15;;;3.10;99.90;;;;;;5033543;28;20643;-47
2022/04/01 03:37:39;;;;;;;6.55;4.57;;;3.10;99.90;;;;;;5033774;28;20182;-47
2022/04/01 03:40:05;;;;;;;6.22;4.25;;;3.00;99.90;;;;;;5033784;28;20180;-47
2022/04/01 03:42:32;;;;;;;9.30;5.05;;;2.90;99.90;;;;;;5033241;28;20167;-47
2022/04/01 03:45:03;;;;;;;5.63;4.15;;;2.90;99.90;;;;;;5033759;28;20179;-46
2022/04/01 03:47:44;;;;;;;5.25;4.75;;;2.90;99.90;;;;;;5033265;28;20302;-46
2022/04/01 03:50:12;;;;;;;5.95;4.20;;;2.90;99.90;;;;;;5033268;28;20175;-47
2022/04/01 03:52:37;;;;;;;6.18;4.78;;;3.00;99.90;;;;;;5031968;28;20178;-47
2022/04/01 03:55:06;;;;;;;5.18;4.30;;;2.90;99.90;;;;;;5033234;28;20183;-46
2022/04/01 03:57:39;;;;;;;7.85;6.13;;;2.80;99.90;;;;;;5033046;28;20167;-46
2022/04/01 04:00:13;;;;;;;5.20;4.15;;;2.90;99.90;;;;;;5033056;28;20665;-46
2022/04/01 04:02:41;;;;;;;5.50;4.25;;;2.90;99.90;;;;;;5033131;28;20172;-46
2022/04/01 04:05:09;;;;;;;4.57;4.10;;;2.80;99.90;;;;;;5033018;28;20172;-47
2022/04/01 04:07:35;;;;;;;6.38;5.13;;;2.80;99.90;;;;;;5033142;28;20258;-46
2022/04/01 04:10:02;;;;;;;3.90;3.33;;;2.80;99.90;;;;;;5032997;28;20171;-47
2022/04/01 04:12:30;;;;;;;4.63;3.85;;;2.80;99.90;;;;;;5033339;28;20163;-47
2022/04/01 04:14:57;;;;;;;8.82;4.30;;;2.80;99.90;;;;;;5033082;28;20197;-47
2022/04/01 04:17:44;;;;;;;5.97;3.85;;;2.80;99.90;;;;;;5033041;28;20175;-47
2022/04/01 04:20:21;;;;;;;4.80;3.58;;;2.70;99.90;;;;;;5033037;28;20195;-47
2022/04/01 04:22:55;;;;;;;5.93;4.43;;;2.70;99.90;;;;;;5032833;28;20185;-47
2022/04/01 04:25:31;;;;;;;6.57;5.43;;;2.70;99.90;;;;;;5033347;28;20185;-48
2022/04/01 04:27:59;;;;;;;4.80;3.53;;;2.80;99.90;;;;;;5032684;28;20167;-47
2022/04/01 04:30:45;;;;;;;5.95;3.35;;;2.70;99.90;;;;;;5032884;28;20532;-47
2022/04/01 04:33:12;;;;;;;6.85;3.80;;;2.70;99.90;;;;;;5032561;28;20159;-46
2022/04/01 04:35:40;;;;;;;4.47;4.07;;;2.80;99.90;;;;;;5032549;28;20171;-47
2022/04/01 04:38:07;;;;;;;6.38;5.18;;;2.80;99.90;;;;;;5032407;28;20183;-47
2022/04/01 04:40:37;;;;;;;7.43;4.72;;;2.80;99.90;;;;;;5032563;28;20217;-46
2022/04/01 04:43:03;;;;;;;5.25;4.43;;;2.80;99.90;;;;;;5032415;28;20188;-47
2022/04/01 04:45:29;;;;;;;6.65;4.95;;;2.80;99.90;;;;;;5032436;28;20160;-47
2022/04/01 04:47:55;;;;;;;5.38;4.47;;;2.80;99.90;;;;;;5032218;28;20584;-47
2022/04/01 04:50:21;;;;;;;4.28;3.80;;;2.80;99.90;;;;;;5032542;28;20168;-47
2022/04/01 04:52:54;;;;;;;5.85;4.85;;;2.70;99.90;;;;;;5032013;28;20181;-47
2022/04/01 04:55:22;;;;;;;6.72;4.47;;;2.80;99.90;;;;;;5032607;28;20167;-47
2022/04/01 04:57:50;;;;;;;5.82;3.47;;;2.80;99.90;;;;;;5032376;28;20175;-47
2022/04/01 05:00:19;;;;;;;6.15;5.05;;;2.80;99.90;;;;;;5032166;28;20229;-47
2022/04/01 05:03:22;;;;;;;8.35;4.47;;;2.80;99.90;;;;;;5032381;28;20178;-47
2022/04/01 05:05:51;;;;;;;5.30;4.15;;;2.80;99.90;;;;;;5032120;28;20171;-47
2022/04/01 05:08:50;;;;;;;3.55;2.90;;;2.80;99.90;;;;;;5032343;28;20167;-47
2022/04/01 05:11:24;;;;;;;4.90;3.00;;;2.70;99.90;;;;;;5030833;28;20265;-48
2022/04/01 05:14:38;;;;;;;10.30;4.43;;;2.70;99.90;;;;;;5032303;28;20171;-47
2022/04/01 05:17:07;;;;;;;8.98;4.22;;;2.70;99.90;;;;;;5048231;28;20186;-47
2022/04/01 05:19:36;;;;;;;4.70;3.55;;;2.70;99.90;;;;;;5031785;28;20211;-47
2022/04/01 05:22:08;;;;;;;5.95;3.90;;;2.60;99.90;;;;;;5031898;28;20631;-47
2022/04/01 05:24:38;;;;;;;5.80;3.95;;;2.70;99.90;;;;;;5031915;28;20171;-47
2022/04/01 05:27:09;;;;;;;4.45;4.05;;;2.70;99.90;;;;;;5031849;28;20254;-47
2022/04/01 05:29:43;;;;;;;6.32;4.18;;;2.80;99.90;;;;;;5032293;28;20516;-47
2022/04/01 05:32:10;;;;;;;3.55;3.25;;;2.80;99.90;;;;;;5032102;28;20178;-47
2022/04/01 05:34:49;;;;;;;5.38;4.38;;;2.60;99.90;;;;;;5032054;28;20210;-47
2022/04/01 05:37:16;;;;;;;3.72;3.42;;;2.70;99.90;;;;;;5032117;28;20182;-47
2022/04/01 05:39:48;;;;;;;3.03;2.78;;;2.70;99.90;;;;;;5031748;28;20738;-47
2022/04/01 05:42:14;;;;;;;5.72;3.78;;;2.60;99.90;;;;;;5031781;28;20553;-47
2022/04/01 05:44:42;;;;;;;5.30;4.40;;;2.70;99.90;;;;;;5031709;28;20269;-47
2022/04/01 05:47:08;;;;;;;5.45;3.97;;;2.80;99.90;;;;;;5031588;28;20671;-47
2022/04/01 05:49:40;;;;;;;5.05;3.80;;;2.70;99.90;;;;;;5031888;28;20171;-47
2022/04/01 05:52:08;;;;;;;4.15;3.72;;;2.70;99.90;;;;;;5031886;28;20171;-47
2022/04/01 05:54:34;;;;;;;4.07;3.67;;;2.60;99.90;;;;;;5031842;28;20202;-46
2022/04/01 05:57:00;;;;;;;4.78;3.78;;;2.70;99.90;;;;;;5031793;28;20198;-46
2022/04/01 05:59:26;;;;;;;5.80;4.53;;;2.60;99.90;;;;;;5031679;28;20261;-46
2022/04/01 06:02:04;;;;;;;2.75;2.53;;;2.70;99.90;;;;;;5030372;28;20172;-47
2022/04/01 06:05:07;;;;;;;4.13;3.72;;;2.70;99.90;;;;;;5032698;28;20175;-47
2022/04/01 06:07:46;;;;;;;3.50;3.05;;;2.70;99.90;;;;;;5035238;28;20179;-47
2022/04/01 06:10:29;;;;;;;4.47;3.08;;;2.70;99.90;;;;;;5035232;28;20694;-47
2022/04/01 06:13:06;;;;;;;4.25;3.85;;;2.60;99.90;;;;;;5035290;28;20182;-47
2022/04/01 06:15:49;;;;;;;5.13;4.47;;;2.60;99.90;;;;;;5033860;28;20646;-47
2022/04/01 06:18:23;;;;;;;3.78;3.35;;;2.70;99.90;;;;;;5034910;28;20195;-47
2022/04/01 06:20:49;;;;;;;3.30;3.00;;;2.70;99.90;;;;;;5034096;28;20182;-46
2022/04/01 06:23:24;;;;;;;4.90;3.80;;;2.70;99.90;;;;;;5034969;28;20532;-47
2022/04/01 06:26:00;;;;;;;4.32;3.92;;;2.60;99.90;;;;;;5035569;28;20171;-47
2022/04/01 06:28:29;;;;;;;4.38;3.95;;;2.70;99.90;;;;;;5034930;28;20178;-47
2022/04/01 06:31:01;;;;;;;7.82;5.18;;;2.70;99.90;;;;;;5035114;28;20199;-47
2022/04/01 06:33:37;;;;;;;6.45;4.70;;;2.70;99.90;;;;;;5034873;28;20195;-47
2022/04/01 06:36:05;;;;;;;6.63;3.70;;;2.70;99.90;;;;;;5034795;28;20166;-47
2022/04/01 06:38:44;;;;;;;5.88;4.28;;;2.60;99.90;;;;;;5034873;28;20214;-47
2022/04/01 06:41:14;;;;;;;2.85;2.45;;;2.70;99.90;;;;;;5034666;28;20159;-48
2022/04/01 06:43:40;;;;;;;4.57;3.63;;;2.50;99.90;;;;;;5034532;28;20167;-47
2022/04/01 06:46:07;;;;;;;5.72;4.10;;;2.60;99.90;;;;;;5034488;28;20218;-47
2022/04/01 06:48:33;;;;;;;3.65;3.10;;;2.70;99.90;;;;;;5034874;28;20269;-47
2022/04/01 06:50:59;;;;;;;5.38;4.88;;;2.70;99.90;;;;;;5034720;28;20175;-47
2022/04/01 06:53:25;;;;;;;3.97;3.58;;;2.80;99.90;;;;;;5034677;28;20233;-46
2022/04/01 06:55:52;;;;;;;3.78;3.40;;;2.60;99.90;;;;;;5034929;28;20263;-47
2022/04/01 06:58:18;;;;;;;3.88;2.85;;;2.70;99.90;;;;;;5034632;28;20203;-47
2022/04/01 07:00:44;;;;;;;3.63;2.72;;;2.70;99.90;;;;;;5034298;28;20214;-47
2022/04/01 07:03:10;;;;;;;4.85;3.38;;;4.00;99.90;;;;;;5034275;28;20194;-47
2022/04/01 07:05:37;;;;;;;2.97;2.65;;;2.60;99.90;;;;;;5034258;28;20179;-47
2022/04/01 07:08:04;;;;;;;3.50;3.20;;;2.60;99.90;;;;;;5034435;28;20171;-47
2022/04/01 07:10:30;;;;;;;4.47;3.67;;;2.70;99.90;;;;;;5034135;28;20167;-47
2022/04/01 07:12:56;;;;;;;4.20;3.58;;;2.70;99.90;;;;;;5034312;28;20218;-47
2022/04/01 07:15:22;;;;;;;4.60;2.88;;;2.70;99.90;;;;;;5034460;28;20612;-47
2022/04/01 07:17:48;;;;;;;2.97;2.63;;;2.70;99.90;;;;;;5033673;28;20167;-47
2022/04/01 07:20:13;;;;;;;3.17;2.88;;;2.60;99.90;;;;;;5034340;28;20538;-47
2022/04/01 07:22:40;;;;;;;2.88;2.58;;;2.60;99.90;;;;;;5034037;28;20217;-48
2022/04/01 07:25:08;;;;;;;3.88;2.72;;;2.50;99.90;;;;;;5034116;28;20179;-48
2022/04/01 07:27:34;;;;;;;3.00;2.70;;;2.50;99.90;;;;;;5032851;28;20245;-49
2022/04/01 07:30:00;;;;;;;3.42;2.67;;;2.50;99.90;;;;;;5033969;28;20233;-48
2022/04/01 07:32:34;;;;;;;3.13;2.55;;;2.60;99.90;;;;;;5033681;28;20475;-50
2022/04/01 07:35:02;;;;;;;3.70;2.70;;;2.50;99.90;;;;;;5034016;28;20174;-49
2022/04/01 07:37:29;;;;;;;2.75;2.42;;;2.50;99.90;;;;;;5033643;28;20225;-48
2022/04/01 07:39:59;;;;;;;4.22;3.33;;;2.50;99.90;;;;;;5033513;28;20256;-49
2022/04/01 07:42:26;;;;;;;2.70;2.50;;;2.60;99.90;;;;;;5033599;28;20250;-48
2022/04/01 07:44:52;;;;;;;2.80;2.38;;;2.60;99.90;;;;;;5033808;28;20242;-49
2022/04/01 07:47:18;;;;;;;3.20;2.90;;;2.60;99.90;;;;;;5033494;28;20753;-48
2022/04/01 07:49:45;;;;;;;3.08;2.75;;;2.60;99.90;;;;;;5033661;28;20254;-49
2022/04/01 07:52:13;;;;;;;3.35;2.88;;;2.60;99.90;;;;;;5033349;28;20168;-49
2022/04/01 07:54:41;;;;;;;5.07;3.05;;;2.60;99.90;;;;;;5033604;28;20229;-49
2022/04/01 07:57:07;;;;;;;3.85;3.47;;;2.70;99.90;;;;;;5033350;28;20163;-49
2022/04/01 07:59:34;;;;;;;4.95;3.70;;;2.80;99.90;;;;;;5033162;28;20199;-49
2022/04/01 08:02:00;;;;;;;4.05;3.35;;;2.80;99.90;;;;;;5033111;28;20202;-49
2022/04/01 08:04:26;;;;;;;3.72;3.22;;;2.80;99.90;;;;;;5033367;28;20203;-49
2022/04/01 08:06:53;;;;;;;4.65;3.35;;;3.00;99.90;;;;;;5033315;28;20179;-48
2022/04/01 08:09:19;;;;;;;4.60;3.17;;;2.90;99.90;;;;;;5032009;28;20175;-49
2022/04/01 08:11:44;;;;;;;4.72;3.35;;;2.80;99.90;;;;;;5032896;28;20164;-49
2022/04/01 08:14:10;;;;;;;4.35;3.47;;;2.80;99.90;;;;;;5032899;28;20700;-49
2022/04/01 08:16:36;;;;;;;3.42;2.75;;;2.80;99.90;;;;;;5033086;28;20179;-48
2022/04/01 08:19:03;;;;;;;4.25;3.55;;;2.80;99.90;;;;;;5032847;28;20207;-48
2022/04/01 08:21:30;;;;;;;5.68;3.17;;;2.80;99.90;;;;;;5033004;28;20179;-47
2022/04/01 08:23:57;;;;;;;3.45;3.15;;;2.70;99.90;;;;;;5033042;28;20171;-48
2022/04/01 08:26:23;;;;;;;3.88;3.40;;;2.70;99.90;;;;;;5032983;28;20171;-47
2022/04/01 08:28:49;;;;;;;5.28;4.25;;;2.80;99.90;;;;;;5032351;28;20587;-47
2022/04/01 08:31:14;;;;;;;3.95;3.58;;;2.70;99.90;;;;;;5032556;28;20167;-48
2022/04/01 08:33:40;;;;;;;6.03;3.92;;;2.70;99.90;;;;;;5032483;28;20221;-48
2022/04/01 08:36:06;;;;;;;5.20;4.30;;;2.80;99.90;;;;;;5032411;28;20167;-49
2022/04/01 08:38:31;;;;;;;4.82;3.20;;;2.70;99.90;;;;;;5032427;28;20219;-49
2022/04/01 08:40:57;;;;;;;5.00;4.60;;;2.70;99.90;;;;;;5032545;28;20194;-49
2022/04/01 08:43:36;;;;;;;4.18;3.78;;;2.70;99.90;;;;;;5032404;28;20266;-48
2022/04/01 08:46:05;;;;;;;5.07;4.55;;;2.70;99.90;;;;;;5032263;28;20169;-49
2022/04/01 08:48:32;;;;;;;4.13;3.72;;;2.70;99.90;;;;;;5031185;28;20241;-48
2022/04/01 08:50:58;;;;;;;4.53;3.22;;;2.70;99.90;;;;;;5032350;28;20174;-48
2022/04/01 08:53:24;;;;;;;4.72;4.07;;;2.60;99.90;;;;;;5032350;28;20623;-48
2022/04/01 08:55:54;;;;;;;4.30;3.80;;;2.60;99.90;;;;;;5032609;28;20179;-49
2022/04/01 08:58:21;;;;;;;4.45;4.03;;;2.60;99.90;;;;;;5032725;28;20214;-49
2022/04/01 09:00:47;;;;;;;5.07;4.30;;;2.60;99.90;;;;;;5032151;28;20179;-49
2022/04/01 09:03:14;;;;;;;2.67;2.40;;;2.60;99.90;;;;;;5032150;28;20503;-49
2022/04/01 09:05:46;;;;;;;3.13;2.47;;;2.60;99.90;;;;;;5032404;28;20641;-49
2022/04/01 09:08:14;;;;;;;3.67;3.13;;;2.50;99.90;;;;;;5032113;28;20171;-49
2022/04/01 09:10:58;;;;;;;4.40;3.70;;;2.60;99.90;;;;;;5032299;28;20225;-49
2022/04/01 09:13:27;;;;;;;4.57;3.28;;;2.50;99.90;;;;;;5032346;28;20197;-48
2022/04/01 09:15:53;;;;;;;4.53;3.85;;;2.50;99.90;;;;;;5032041;28;20638;-47
2022/04/01 09:18:42;;;;;;;5.15;4.60;;;2.70;99.90;;;;;;5032301;28;20218;-49
2022/04/01 09:21:10;;;;;;;5.13;3.95;;;2.60;99.90;;;;;;5031981;28;20206;-49
2022/04/01 09:23:37;;;;;;;3.60;3.10;;;2.80;99.90;;;;;;5031976;28;20178;-48
2022/04/01 09:26:03;;;;;;;4.38;3.40;;;2.70;99.90;;;;;;5031886;28;20174;-49
2022/04/01 09:28:40;;;;;;;4.38;3.13;;;2.80;99.90;;;;;;5031827;28;20241;-48
2022/04/01 09:31:14;;;;;;;4.95;4.05;;;2.70;99.90;;;;;;5031954;28;20170;-49
2022/04/01 09:33:43;;;;;;;3.33;2.90;;;3.00;99.90;;;;;;5031869;28;20158;-48
2022/04/01 09:36:12;;;;;;;4.25;2.85;;;2.90;99.90;;;;;;5031846;28;20238;-49
2022/04/01 09:38:37;;;;;;;3.45;3.00;;;2.80;99.90;;;;;;5031770;28;20281;-49
2022/04/01 09:41:05;;;;;;;3.03;2.72;;;2.90;99.90;;;;;;5035734;28;20203;-49
2022/04/01 09:43:38;;;;;;;4.03;3.20;;;2.90;99.90;;;;;;5035991;28;20535;-48
2022/04/01 09:46:21;;;;;;;4.20;3.65;;;3.00;99.90;;;;;;5035795;28;20171;-48
2022/04/01 09:48:47;;;;;;;3.20;2.90;;;2.90;99.90;;;;;;5034435;28;20183;-49
2022/04/01 09:51:13;;;;;;;3.45;3.13;;;2.80;99.90;;;;;;5035599;28;20229;-48
2022/04/01 09:53:40;;;;;;;3.78;3.33;;;2.80;99.90;;;;;;5035491;28;20159;-49
2022/04/01 09:56:06;;;;;;;3.47;2.90;;;2.90;99.90;;;;;;5035733;28;20258;-48
2022/04/01 09:58:32;;;;;;;2.92;2.63;;;2.90;99.90;;;;;;5035732;28;20199;-48
2022/04/01 10:01:01;;;;;;;3.55;2.67;;;2.90;99.90;;;;;;5035483;28;20175;-49
2022/04/01 10:03:27;;;;;;;2.83;2.63;;;2.80;99.90;;;;;;5035397;28;20195;-48
2022/04/01 10:05:53;;;;;;;2.35;2.15;;;2.80;99.90;;;;;;5035363;28;20651;-48
2022/04/01 10:08:22;;;;;;;5.38;3.20;;;2.90;99.90;;;;;;5035520;28;20159;-49
2022/04/01 10:10:48;;;;;;;3.67;2.90;;;2.90;99.90;;;;;;5035872;28;20172;-48
2022/04/01 10:13:29;;;;;;;3.97;2.97;;;2.90;99.90;;;;;;5035195;28;20228;-49
2022/04/01 10:15:57;;;;;;;3.17;2.40;;;2.90;99.90;;;;;;5033846;28;20171;-48
2022/04/01 10:18:24;;;;;;;4.80;3.35;;;2.90;99.90;;;;;;5034997;28;20203;-48
2022/04/01 10:20:54;;;;;;;4.65;3.13;;;3.00;99.90;;;;;;5035363;28;20194;-49
2022/04/01 10:23:21;;;;;;;2.75;2.53;;;3.00;99.90;;;;;;5035562;28;20167;-47
2022/04/01 10:26:03;;;;;;;3.38;2.95;;;2.80;99.90;;;;;;5035471;28;20375;-47
2022/04/01 10:28:29;;;;;;;6.47;3.42;;;2.80;99.90;;;;;;5033612;28;20163;-47
2022/04/01 10:31:01;;;;;;;4.20;3.63;;;3.00;99.90;;;;;;5034818;28;20630;-47
2022/04/01 10:33:33;;;;;;;4.85;3.17;;;3.00;99.90;;;;;;5034899;28;20174;-48
2022/04/01 10:35:59;;;;;;;5.03;3.50;;;2.90;99.90;;;;;;5034773;28;20167;-48
2022/04/01 10:38:28;;;;;;;3.55;2.35;;;2.90;99.90;;;;;;5033435;28;20608;-48
2022/04/01 10:41:05;;;;;;;6.85;3.03;;;3.00;99.90;;;;;;5034727;28;20163;-48
2022/04/01 10:43:31;;;;;;;6.03;3.28;;;2.90;99.90;;;;;;5034731;28;20296;-48
2022/04/01 10:46:10;;;;;;;4.05;3.40;;;2.90;99.90;;;;;;5034803;28;20624;-48
2022/04/01 10:51:39;;;;;;;4.63;3.17;;;3.20;99.90;;;;;;5033959;28;20195;-49
2022/04/01 10:54:13;;;;;;;3.45;2.63;;;3.30;99.90;;;;;;5034692;28;20202;-48
2022/04/01 10:56:40;;;;;;;6.30;3.55;;;3.10;99.90;;;;;;5034288;28;20171;-49
2022/04/01 10:59:10;;;;;;;3.20;2.50;;;3.10;99.90;;;;;;5034458;28;20298;-49
2022/04/01 11:01:43;;;;;;;3.30;2.88;;;3.20;99.90;;;;;;5034292;28;20258;-50
2022/04/01 11:04:11;;;;;;;3.45;2.90;;;3.20;99.90;;;;;;5034507;28;20258;-49
2022/04/01 11:07:14;;;;;;;3.53;2.92;;;3.20;99.90;;;;;;5034485;28;20175;-48
2022/04/01 11:09:51;;;;;;;4.10;3.00;;;3.20;99.90;;;;;;5034055;28;20171;-49
2022/04/01 11:12:20;;;;;;;4.00;2.38;;;3.20;99.90;;;;;;5034445;28;20171;-49
2022/04/01 11:14:55;;;;;;;2.72;2.38;;;3.10;99.90;;;;;;5033061;28;20512;-49
2022/04/01 11:17:22;;;;;;;3.13;2.25;;;3.10;99.90;;;;;;5034570;28;20233;-48
2022/04/01 11:20:14;;;;;;;5.93;3.05;;;3.00;99.90;;;;;;5034075;28;20732;-49
2022/04/01 11:22:44;;;;;;;5.82;3.33;;;3.10;99.90;;;;;;5033894;28;20254;-48
2022/04/01 11:25:31;;;;;;;2.97;2.45;;;3.10;99.90;;;;;;5034143;28;20183;-47
2022/04/01 11:28:06;;;;;;;8.20;3.20;;;3.10;99.90;;;;;;5034050;28;20254;-48
2022/04/01 11:30:41;;;;;;;3.42;2.55;;;3.20;99.90;;;;;;5034000;28;20201;-48
2022/04/01 11:33:15;;;;;;;3.30;2.53;;;3.10;99.90;;;;;;5033630;28;20192;-48
2022/04/01 11:35:46;;;;;;;4.97;2.42;;;3.00;99.90;;;;;;5033814;28;20171;-48
2022/04/01 11:38:15;;;;;;;3.28;2.55;;;3.20;99.90;;;;;;5033581;28;20706;-48
2022/04/01 11:40:42;;;;;;;3.03;2.72;;;3.10;99.90;;;;;;5033832;28;20203;-48
2022/04/01 11:43:15;;;;;;;4.03;3.08;;;3.10;99.90;;;;;;5033486;28;20258;-47
2022/04/01 11:45:54;;;;;;;3.28;2.72;;;3.10;99.90;;;;;;5033457;28;20186;-48
2022/04/01 11:48:22;;;;;;;3.13;2.30;;;3.00;99.90;;;;;;5033561;28;20571;-48
2022/04/01 11:50:52;;;;;;;2.28;2.08;;;3.00;99.90;;;;;;5033952;28;20179;-48
2022/04/01 11:53:23;;;;;;;3.75;2.60;;;3.00;99.90;;;;;;5033832;28;20258;-48
2022/04/01 11:55:49;;;;;;;4.50;2.47;;;3.00;99.90;;;;;;5032288;28;20167;-48
2022/04/01 11:58:15;;;;;;;3.78;3.10;;;3.10;99.90;;;;;;5033374;28;20214;-46
2022/04/01 12:00:41;;;;;;;3.85;2.70;;;3.20;99.90;;;;;;5033243;28;20172;-47
2022/04/01 12:03:09;;;;;;;4.22;3.22;;;3.20;99.90;;;;;;5033003;28;20171;-48
2022/04/01 12:05:35;;;;;;;2.97;2.67;;;3.30;99.90;;;;;;5031776;28;20529;-47
2022/04/01 12:10:54;;;;;;;3.08;2.10;;;3.20;99.90;;;;;;5033011;28;20186;-46
2022/04/01 12:13:20;;;;;;;4.38;2.97;;;3.20;99.90;;;;;;5033205;28;20164;-47
2022/04/01 12:15:47;;;;;;;2.80;2.40;;;3.10;99.90;;;;;;5032938;28;20186;-47
2022/04/01 12:18:15;;;;;;;3.17;2.72;;;3.10;99.90;;;;;;5032828;28;20223;-47
2022/04/01 12:20:43;;;;;;;3.92;3.17;;;2.90;99.90;;;;;;5032796;28;20171;-46
2022/04/01 12:23:09;;;;;;;3.13;2.60;;;3.00;99.90;;;;;;5032688;28;20167;-46
2022/04/01 12:25:37;;;;;;;3.50;2.00;;;3.10;99.90;;;;;;5032971;28;20183;-48
2022/04/01 12:28:07;;;;;;;4.03;2.42;;;3.00;99.90;;;;;;5032688;28;20159;-46
2022/04/01 12:30:40;;;;;;;3.78;2.05;;;3.00;99.90;;;;;;5032918;28;20178;-46
2022/04/01 12:33:14;;;;;;;3.13;2.35;;;3.00;99.90;;;;;;5032898;28;20237;-47
2022/04/01 12:35:52;;;;;;;3.15;2.25;;;2.90;99.90;;;;;;5032560;28;20163;-48
2022/04/01 12:38:18;;;;;;;3.00;2.53;;;3.00;99.90;;;;;;5032658;28;20716;-47
2022/04/01 12:40:48;;;;;;;4.00;3.10;;;2.90;99.90;;;;;;5032698;28;20212;-48
2022/04/01 12:43:40;;;;;;;5.75;2.78;;;3.00;99.90;;;;;;5032537;28;20167;-47
2022/04/01 12:46:08;;;;;;;5.38;2.75;;;3.10;99.90;;;;;;5032477;28;20178;-47
2022/04/01 12:48:49;;;;;;;4.82;3.08;;;3.00;99.90;;;;;;5032267;28;20187;-49
2022/04/01 12:51:25;;;;;;;3.92;3.20;;;3.10;99.90;;;;;;5032342;28;20163;-47
2022/04/01 12:53:52;;;;;;;8.95;2.80;;;3.20;99.90;;;;;;5032552;28;20171;-48
2022/04/01 12:56:21;;;;;;;5.20;4.70;;;3.30;99.90;;;;;;5032510;28;20160;-46
2022/04/01 12:58:58;;;;;;;4.63;2.90;;;3.30;99.90;;;;;;5032055;28;20201;-49
2022/04/01 13:01:29;;;;;;;3.17;2.85;;;3.40;99.90;;;;;;5032129;28;20171;-46
2022/04/01 13:03:56;;;;;;;3.88;3.53;;;3.40;99.90;;;;;;5032085;28;20258;-47
2022/04/01 13:06:26;;;;;;;2.65;2.17;;;3.40;99.90;;;;;;5032635;28;20175;-47
2022/04/01 13:08:59;;;;;;;2.35;2.15;;;3.40;99.90;;;;;;5032418;28;20250;-47
2022/04/01 13:11:40;;;;;;;4.38;3.75;;;3.40;99.90;;;;;;5032077;28;20584;-47
2022/04/01 13:14:24;;;;;;;3.55;2.72;;;3.50;99.90;;;;;;5031493;28;20237;-47
2022/04/01 13:16:53;;;;;;;6.05;3.30;;;3.70;99.90;;;;;;5032377;28;20651;-46